sensor_id;sensor_type;location;lat;lon;timestamp;P1;durP1;ratioP1;P2;durP2;ratioP2
19495;SDS011;9888;48.606;9.630;2022-08-16T00:00:37;9.83;;;6.00;;
19495;SDS011;9888;48.606;9.630;2022-08-16T00:03:06;11.13;;;6.23;;
19495;SDS011;9888;48.606;9.630;2022-08-16T00:05:35;9.57;;;6.00;;
19495;SDS011;9888;48.606;9.630;2022-08-16T00:08:03;12.67;;;6.73;;
19495;SDS011;9888;48.606;9.630;2022-08-16T00:10:31;10.77;;;6.60;;
19495;SDS011;9888;48.606;9.630;2022-08-16T00:13:00;12.93;;;7.30;;
19495;SDS011;9888;48.606;9.630;2022-08-16T00:15:36;10.20;;;6.50;;
19495;SDS011;9888;48.606;9.630;2022-08-16T00:18:06;10.60;;;6.80;;
19495;SDS011;9888;48.606;9.630;2022-08-16T00:20:36;12.07;;;7.70;;
19495;SDS011;9888;48.606;9.630;2022-08-16T00:23:05;11.20;;;7.50;;
19495;SDS011;9888;48.606;9.630;2022-08-16T00:25:35;11.80;;;7.90;;
19495;SDS011;9888;48.606;9.630;2022-08-16T00:28:06;11.60;;;7.20;;
19495;SDS011;9888;48.606;9.630;2022-08-16T00:30:34;11.90;;;7.60;;
19495;SDS011;9888;48.606;9.630;2022-08-16T00:33:03;14.60;;;7.60;;
19495;SDS011;9888;48.606;9.630;2022-08-16T00:35:32;10.90;;;7.30;;
19495;SDS011;9888;48.606;9.630;2022-08-16T00:38:02;12.10;;;8.07;;
19495;SDS011;9888;48.606;9.630;2022-08-16T00:40:35;11.43;;;7.40;;
19495;SDS011;9888;48.606;9.630;2022-08-16T00:43:13;12.67;;;7.97;;
19495;SDS011;9888;48.606;9.630;2022-08-16T00:48:39;11.57;;;7.83;;
19495;SDS011;9888;48.606;9.630;2022-08-16T00:51:10;15.80;;;7.33;;
19495;SDS011;9888;48.606;9.630;2022-08-16T00:53:39;13.17;;;7.63;;
19495;SDS011;9888;48.606;9.630;2022-08-16T00:56:11;11.73;;;7.90;;
19495;SDS011;9888;48.606;9.630;2022-08-16T00:58:42;11.87;;;7.77;;
19495;SDS011;9888;48.606;9.630;2022-08-16T01:01:12;10.93;;;7.50;;
19495;SDS011;9888;48.606;9.630;2022-08-16T01:03:42;12.90;;;8.07;;
19495;SDS011;9888;48.606;9.630;2022-08-16T01:06:13;11.40;;;7.50;;
19495;SDS011;9888;48.606;9.630;2022-08-16T01:08:43;12.20;;;7.77;;
19495;SDS011;9888;48.606;9.630;2022-08-16T01:11:12;11.53;;;7.90;;
19495;SDS011;9888;48.606;9.630;2022-08-16T01:13:40;14.40;;;7.73;;
19495;SDS011;9888;48.606;9.630;2022-08-16T01:16:13;11.50;;;8.13;;
19495;SDS011;9888;48.606;9.630;2022-08-16T01:18:51;11.80;;;7.80;;
19495;SDS011;9888;48.606;9.630;2022-08-16T01:26:42;13.33;;;8.40;;
19495;SDS011;9888;48.606;9.630;2022-08-16T01:29:17;12.97;;;8.97;;
19495;SDS011;9888;48.606;9.630;2022-08-16T01:31:49;12.50;;;8.60;;
19495;SDS011;9888;48.606;9.630;2022-08-16T01:34:17;14.50;;;9.03;;
19495;SDS011;9888;48.606;9.630;2022-08-16T01:36:45;14.63;;;8.70;;
19495;SDS011;9888;48.606;9.630;2022-08-16T01:39:14;12.57;;;8.10;;
19495;SDS011;9888;48.606;9.630;2022-08-16T01:41:42;15.97;;;9.00;;
19495;SDS011;9888;48.606;9.630;2022-08-16T01:44:10;12.90;;;9.37;;
19495;SDS011;9888;48.606;9.630;2022-08-16T01:46:43;11.60;;;8.13;;
19495;SDS011;9888;48.606;9.630;2022-08-16T01:49:17;11.97;;;8.67;;
19495;SDS011;9888;48.606;9.630;2022-08-16T01:51:53;12.50;;;8.60;;
19495;SDS011;9888;48.606;9.630;2022-08-16T01:54:23;12.97;;;8.77;;
19495;SDS011;9888;48.606;9.630;2022-08-16T01:56:54;13.07;;;9.10;;
19495;SDS011;9888;48.606;9.630;2022-08-16T01:59:29;12.60;;;8.40;;
19495;SDS011;9888;48.606;9.630;2022-08-16T02:01:58;11.40;;;8.50;;
19495;SDS011;9888;48.606;9.630;2022-08-16T02:04:34;12.80;;;9.07;;
19495;SDS011;9888;48.606;9.630;2022-08-16T02:07:06;13.13;;;8.83;;
19495;SDS011;9888;48.606;9.630;2022-08-16T02:09:35;13.43;;;8.50;;
19495;SDS011;9888;48.606;9.630;2022-08-16T02:12:04;12.90;;;8.17;;
19495;SDS011;9888;48.606;9.630;2022-08-16T02:14:35;12.80;;;8.87;;
19495;SDS011;9888;48.606;9.630;2022-08-16T02:17:04;14.40;;;8.40;;
19495;SDS011;9888;48.606;9.630;2022-08-16T02:19:34;13.20;;;9.10;;
19495;SDS011;9888;48.606;9.630;2022-08-16T02:22:04;15.30;;;9.03;;
19495;SDS011;9888;48.606;9.630;2022-08-16T02:24:35;13.00;;;8.70;;
19495;SDS011;9888;48.606;9.630;2022-08-16T02:27:04;13.00;;;8.90;;
19495;SDS011;9888;48.606;9.630;2022-08-16T02:29:39;13.53;;;9.07;;
19495;SDS011;9888;48.606;9.630;2022-08-16T02:32:12;13.17;;;8.67;;
19495;SDS011;9888;48.606;9.630;2022-08-16T02:34:42;14.20;;;9.33;;
19495;SDS011;9888;48.606;9.630;2022-08-16T02:37:12;12.97;;;8.67;;
19495;SDS011;9888;48.606;9.630;2022-08-16T02:39:39;12.67;;;9.30;;
19495;SDS011;9888;48.606;9.630;2022-08-16T02:42:06;12.50;;;8.90;;
19495;SDS011;9888;48.606;9.630;2022-08-16T02:44:35;14.07;;;9.57;;
19495;SDS011;9888;48.606;9.630;2022-08-16T02:47:02;13.27;;;9.23;;
19495;SDS011;9888;48.606;9.630;2022-08-16T02:49:29;15.07;;;8.87;;
19495;SDS011;9888;48.606;9.630;2022-08-16T02:51:58;13.73;;;9.80;;
19495;SDS011;9888;48.606;9.630;2022-08-16T02:54:25;12.83;;;8.67;;
19495;SDS011;9888;48.606;9.630;2022-08-16T02:56:53;14.10;;;9.13;;
19495;SDS011;9888;48.606;9.630;2022-08-16T02:59:21;14.13;;;8.90;;
19495;SDS011;9888;48.606;9.630;2022-08-16T03:01:49;13.43;;;9.50;;
19495;SDS011;9888;48.606;9.630;2022-08-16T03:04:16;12.90;;;8.63;;
19495;SDS011;9888;48.606;9.630;2022-08-16T03:06:43;13.97;;;8.90;;
19495;SDS011;9888;48.606;9.630;2022-08-16T03:09:10;15.80;;;8.83;;
19495;SDS011;9888;48.606;9.630;2022-08-16T03:11:38;20.90;;;8.20;;
19495;SDS011;9888;48.606;9.630;2022-08-16T03:14:07;15.37;;;8.70;;
19495;SDS011;9888;48.606;9.630;2022-08-16T03:16:35;14.47;;;8.97;;
19495;SDS011;9888;48.606;9.630;2022-08-16T03:19:04;14.17;;;8.63;;
19495;SDS011;9888;48.606;9.630;2022-08-16T03:21:31;17.43;;;9.30;;
19495;SDS011;9888;48.606;9.630;2022-08-16T03:23:59;14.80;;;9.10;;
19495;SDS011;9888;48.606;9.630;2022-08-16T03:26:27;15.40;;;9.03;;
19495;SDS011;9888;48.606;9.630;2022-08-16T03:28:55;12.70;;;9.30;;
19495;SDS011;9888;48.606;9.630;2022-08-16T03:31:22;14.90;;;9.50;;
19495;SDS011;9888;48.606;9.630;2022-08-16T03:33:49;14.20;;;9.57;;
19495;SDS011;9888;48.606;9.630;2022-08-16T03:36:18;14.17;;;8.63;;
19495;SDS011;9888;48.606;9.630;2022-08-16T03:38:45;14.97;;;9.70;;
19495;SDS011;9888;48.606;9.630;2022-08-16T03:41:14;14.70;;;8.90;;
19495;SDS011;9888;48.606;9.630;2022-08-16T03:43:42;15.77;;;9.07;;
19495;SDS011;9888;48.606;9.630;2022-08-16T03:46:09;14.77;;;9.07;;
19495;SDS011;9888;48.606;9.630;2022-08-16T03:48:38;17.77;;;9.33;;
19495;SDS011;9888;48.606;9.630;2022-08-16T03:51:07;16.67;;;9.40;;
19495;SDS011;9888;48.606;9.630;2022-08-16T03:53:37;15.17;;;9.07;;
19495;SDS011;9888;48.606;9.630;2022-08-16T03:56:06;17.23;;;8.77;;
19495;SDS011;9888;48.606;9.630;2022-08-16T03:58:35;15.03;;;9.10;;
19495;SDS011;9888;48.606;9.630;2022-08-16T04:01:04;15.47;;;8.97;;
19495;SDS011;9888;48.606;9.630;2022-08-16T04:03:32;13.27;;;8.67;;
19495;SDS011;9888;48.606;9.630;2022-08-16T04:06:00;15.23;;;9.70;;
19495;SDS011;9888;48.606;9.630;2022-08-16T04:08:28;14.93;;;9.43;;
19495;SDS011;9888;48.606;9.630;2022-08-16T04:10:56;20.73;;;8.90;;
19495;SDS011;9888;48.606;9.630;2022-08-16T04:13:24;13.80;;;9.63;;
19495;SDS011;9888;48.606;9.630;2022-08-16T04:15:53;16.73;;;9.30;;
19495;SDS011;9888;48.606;9.630;2022-08-16T04:18:24;17.23;;;10.20;;
19495;SDS011;9888;48.606;9.630;2022-08-16T04:20:51;14.83;;;10.03;;
19495;SDS011;9888;48.606;9.630;2022-08-16T04:23:21;17.20;;;9.47;;
19495;SDS011;9888;48.606;9.630;2022-08-16T04:25:49;21.43;;;9.87;;
19495;SDS011;9888;48.606;9.630;2022-08-16T04:28:18;15.30;;;9.00;;
19495;SDS011;9888;48.606;9.630;2022-08-16T04:30:45;13.33;;;9.60;;
19495;SDS011;9888;48.606;9.630;2022-08-16T04:33:14;22.30;;;14.27;;
19495;SDS011;9888;48.606;9.630;2022-08-16T04:35:42;23.60;;;10.23;;
19495;SDS011;9888;48.606;9.630;2022-08-16T04:38:11;18.07;;;10.23;;
19495;SDS011;9888;48.606;9.630;2022-08-16T04:40:39;16.40;;;10.10;;
19495;SDS011;9888;48.606;9.630;2022-08-16T04:43:07;15.27;;;9.63;;
19495;SDS011;9888;48.606;9.630;2022-08-16T04:45:35;17.40;;;10.00;;
19495;SDS011;9888;48.606;9.630;2022-08-16T04:48:04;17.37;;;9.93;;
19495;SDS011;9888;48.606;9.630;2022-08-16T04:50:31;23.60;;;10.40;;
19495;SDS011;9888;48.606;9.630;2022-08-16T04:53:00;17.30;;;11.23;;
19495;SDS011;9888;48.606;9.630;2022-08-16T04:55:29;16.03;;;10.47;;
19495;SDS011;9888;48.606;9.630;2022-08-16T04:57:58;14.37;;;9.80;;
19495;SDS011;9888;48.606;9.630;2022-08-16T05:00:28;18.17;;;10.13;;
19495;SDS011;9888;48.606;9.630;2022-08-16T05:03:04;14.70;;;10.03;;
19495;SDS011;9888;48.606;9.630;2022-08-16T05:05:37;17.10;;;10.77;;
19495;SDS011;9888;48.606;9.630;2022-08-16T05:08:06;17.13;;;9.93;;
19495;SDS011;9888;48.606;9.630;2022-08-16T05:10:35;16.70;;;11.00;;
19495;SDS011;9888;48.606;9.630;2022-08-16T05:13:07;18.07;;;10.10;;
19495;SDS011;9888;48.606;9.630;2022-08-16T05:15:41;18.60;;;11.10;;
19495;SDS011;9888;48.606;9.630;2022-08-16T05:18:11;21.80;;;10.70;;
19495;SDS011;9888;48.606;9.630;2022-08-16T05:20:40;16.03;;;11.00;;
19495;SDS011;9888;48.606;9.630;2022-08-16T05:23:09;19.53;;;11.13;;
19495;SDS011;9888;48.606;9.630;2022-08-16T05:25:37;19.23;;;10.77;;
19495;SDS011;9888;48.606;9.630;2022-08-16T05:28:05;16.87;;;10.90;;
19495;SDS011;9888;48.606;9.630;2022-08-16T05:30:35;16.43;;;10.70;;
19495;SDS011;9888;48.606;9.630;2022-08-16T05:33:04;21.67;;;11.50;;
19495;SDS011;9888;48.606;9.630;2022-08-16T05:35:34;17.80;;;11.70;;
19495;SDS011;9888;48.606;9.630;2022-08-16T05:38:02;19.70;;;11.70;;
19495;SDS011;9888;48.606;9.630;2022-08-16T05:40:29;21.80;;;12.03;;
19495;SDS011;9888;48.606;9.630;2022-08-16T05:42:58;18.93;;;12.07;;
19495;SDS011;9888;48.606;9.630;2022-08-16T05:45:25;25.90;;;11.80;;
19495;SDS011;9888;48.606;9.630;2022-08-16T05:47:54;48.30;;;12.70;;
19495;SDS011;9888;48.606;9.630;2022-08-16T05:50:22;22.73;;;12.03;;
19495;SDS011;9888;48.606;9.630;2022-08-16T05:52:51;21.13;;;11.97;;
19495;SDS011;9888;48.606;9.630;2022-08-16T05:55:19;20.47;;;11.20;;
19495;SDS011;9888;48.606;9.630;2022-08-16T05:57:49;15.53;;;11.47;;
19495;SDS011;9888;48.606;9.630;2022-08-16T06:00:17;21.00;;;11.37;;
19495;SDS011;9888;48.606;9.630;2022-08-16T06:02:45;23.80;;;11.30;;
19495;SDS011;9888;48.606;9.630;2022-08-16T06:05:13;28.93;;;11.70;;
19495;SDS011;9888;48.606;9.630;2022-08-16T06:07:43;17.63;;;10.33;;
19495;SDS011;9888;48.606;9.630;2022-08-16T06:10:11;21.87;;;11.53;;
19495;SDS011;9888;48.606;9.630;2022-08-16T06:12:41;20.17;;;11.90;;
19495;SDS011;9888;48.606;9.630;2022-08-16T06:15:10;22.47;;;11.60;;
19495;SDS011;9888;48.606;9.630;2022-08-16T06:17:40;19.30;;;11.90;;
19495;SDS011;9888;48.606;9.630;2022-08-16T06:20:14;19.33;;;10.43;;
19495;SDS011;9888;48.606;9.630;2022-08-16T06:22:45;14.63;;;10.40;;
19495;SDS011;9888;48.606;9.630;2022-08-16T06:25:13;15.43;;;10.20;;
19495;SDS011;9888;48.606;9.630;2022-08-16T06:27:45;14.17;;;9.57;;
19495;SDS011;9888;48.606;9.630;2022-08-16T06:30:15;13.10;;;9.90;;
19495;SDS011;9888;48.606;9.630;2022-08-16T06:32:42;19.43;;;10.77;;
19495;SDS011;9888;48.606;9.630;2022-08-16T06:35:13;13.73;;;10.43;;
19495;SDS011;9888;48.606;9.630;2022-08-16T06:37:41;14.93;;;10.20;;
19495;SDS011;9888;48.606;9.630;2022-08-16T06:40:09;14.90;;;11.40;;
19495;SDS011;9888;48.606;9.630;2022-08-16T06:42:37;14.80;;;10.40;;
19495;SDS011;9888;48.606;9.630;2022-08-16T06:45:05;15.90;;;10.27;;
19495;SDS011;9888;48.606;9.630;2022-08-16T06:47:35;20.30;;;11.60;;
19495;SDS011;9888;48.606;9.630;2022-08-16T06:50:03;18.93;;;10.40;;
19495;SDS011;9888;48.606;9.630;2022-08-16T06:52:31;18.43;;;11.13;;
19495;SDS011;9888;48.606;9.630;2022-08-16T06:55:04;12.60;;;9.23;;
19495;SDS011;9888;48.606;9.630;2022-08-16T06:57:33;17.43;;;10.50;;
19495;SDS011;9888;48.606;9.630;2022-08-16T07:00:02;13.40;;;10.50;;
19495;SDS011;9888;48.606;9.630;2022-08-16T07:02:40;12.70;;;10.40;;
19495;SDS011;9888;48.606;9.630;2022-08-16T07:05:09;17.80;;;10.17;;
19495;SDS011;9888;48.606;9.630;2022-08-16T07:07:38;13.73;;;11.03;;
19495;SDS011;9888;48.606;9.630;2022-08-16T07:10:07;16.90;;;10.67;;
19495;SDS011;9888;48.606;9.630;2022-08-16T07:12:42;15.60;;;9.90;;
19495;SDS011;9888;48.606;9.630;2022-08-16T07:15:16;14.33;;;10.03;;
19495;SDS011;9888;48.606;9.630;2022-08-16T07:17:44;16.33;;;10.43;;
19495;SDS011;9888;48.606;9.630;2022-08-16T07:20:14;15.60;;;10.27;;
19495;SDS011;9888;48.606;9.630;2022-08-16T07:22:44;11.73;;;9.03;;
19495;SDS011;9888;48.606;9.630;2022-08-16T07:25:12;18.60;;;10.67;;
19495;SDS011;9888;48.606;9.630;2022-08-16T07:27:41;23.90;;;14.97;;
19495;SDS011;9888;48.606;9.630;2022-08-16T07:30:12;18.50;;;12.07;;
19495;SDS011;9888;48.606;9.630;2022-08-16T07:32:42;15.93;;;8.90;;
19495;SDS011;9888;48.606;9.630;2022-08-16T07:35:09;11.60;;;8.63;;
19495;SDS011;9888;48.606;9.630;2022-08-16T07:37:38;12.07;;;9.50;;
19495;SDS011;9888;48.606;9.630;2022-08-16T07:40:06;13.40;;;9.80;;
19495;SDS011;9888;48.606;9.630;2022-08-16T07:42:35;17.03;;;10.77;;
19495;SDS011;9888;48.606;9.630;2022-08-16T07:45:04;11.80;;;9.50;;
19495;SDS011;9888;48.606;9.630;2022-08-16T07:47:38;15.37;;;9.57;;
19495;SDS011;9888;48.606;9.630;2022-08-16T07:50:10;12.10;;;9.20;;
19495;SDS011;9888;48.606;9.630;2022-08-16T07:52:42;14.23;;;9.13;;
19495;SDS011;9888;48.606;9.630;2022-08-16T07:55:19;14.37;;;8.70;;
19495;SDS011;9888;48.606;9.630;2022-08-16T07:57:52;12.97;;;8.53;;
19495;SDS011;9888;48.606;9.630;2022-08-16T08:00:21;26.50;;;17.33;;
19495;SDS011;9888;48.606;9.630;2022-08-16T08:02:48;17.90;;;9.87;;
19495;SDS011;9888;48.606;9.630;2022-08-16T08:05:15;14.27;;;9.50;;
19495;SDS011;9888;48.606;9.630;2022-08-16T08:07:43;21.10;;;10.27;;
19495;SDS011;9888;48.606;9.630;2022-08-16T08:10:11;15.53;;;9.93;;
19495;SDS011;9888;48.606;9.630;2022-08-16T08:12:39;12.20;;;9.40;;
19495;SDS011;9888;48.606;9.630;2022-08-16T08:15:13;11.07;;;8.90;;
19495;SDS011;9888;48.606;9.630;2022-08-16T08:17:41;12.57;;;8.93;;
19495;SDS011;9888;48.606;9.630;2022-08-16T08:23:34;16.90;;;9.47;;
19495;SDS011;9888;48.606;9.630;2022-08-16T08:26:05;12.60;;;9.37;;
19495;SDS011;9888;48.606;9.630;2022-08-16T08:28:33;16.87;;;9.30;;
19495;SDS011;9888;48.606;9.630;2022-08-16T08:33:56;17.33;;;9.60;;
19495;SDS011;9888;48.606;9.630;2022-08-16T08:36:30;20.43;;;10.37;;
19495;SDS011;9888;48.606;9.630;2022-08-16T08:39:12;10.80;;;9.00;;
19495;SDS011;9888;48.606;9.630;2022-08-16T08:41:46;11.33;;;8.67;;
19495;SDS011;9888;48.606;9.630;2022-08-16T08:44:13;13.83;;;8.70;;
19495;SDS011;9888;48.606;9.630;2022-08-16T08:46:42;16.13;;;9.43;;
19495;SDS011;9888;48.606;9.630;2022-08-16T08:49:09;16.17;;;9.20;;
19495;SDS011;9888;48.606;9.630;2022-08-16T08:51:36;10.70;;;8.40;;
19495;SDS011;9888;48.606;9.630;2022-08-16T08:54:04;14.50;;;8.93;;
19495;SDS011;9888;48.606;9.630;2022-08-16T08:59:48;15.83;;;9.40;;
19495;SDS011;9888;48.606;9.630;2022-08-16T09:02:16;15.33;;;8.47;;
19495;SDS011;9888;48.606;9.630;2022-08-16T09:04:45;15.33;;;8.70;;
19495;SDS011;9888;48.606;9.630;2022-08-16T09:07:19;16.43;;;9.57;;
19495;SDS011;9888;48.606;9.630;2022-08-16T09:09:48;14.47;;;9.00;;
19495;SDS011;9888;48.606;9.630;2022-08-16T09:12:23;9.87;;;8.43;;
19495;SDS011;9888;48.606;9.630;2022-08-16T09:14:51;14.73;;;9.33;;
19495;SDS011;9888;48.606;9.630;2022-08-16T09:17:19;15.10;;;9.57;;
19495;SDS011;9888;48.606;9.630;2022-08-16T09:19:46;14.83;;;9.40;;
19495;SDS011;9888;48.606;9.630;2022-08-16T09:22:55;10.87;;;9.00;;
19495;SDS011;9888;48.606;9.630;2022-08-16T09:25:23;11.80;;;8.83;;
19495;SDS011;9888;48.606;9.630;2022-08-16T09:27:51;11.67;;;8.67;;
19495;SDS011;9888;48.606;9.630;2022-08-16T09:30:19;15.37;;;8.80;;
19495;SDS011;9888;48.606;9.630;2022-08-16T09:32:46;10.90;;;9.00;;
19495;SDS011;9888;48.606;9.630;2022-08-16T09:35:16;11.00;;;8.70;;
19495;SDS011;9888;48.606;9.630;2022-08-16T09:37:44;10.30;;;8.30;;
19495;SDS011;9888;48.606;9.630;2022-08-16T09:40:13;13.23;;;8.93;;
19495;SDS011;9888;48.606;9.630;2022-08-16T09:42:41;12.20;;;9.13;;
19495;SDS011;9888;48.606;9.630;2022-08-16T09:45:09;16.77;;;9.67;;
19495;SDS011;9888;48.606;9.630;2022-08-16T09:50:30;11.03;;;9.30;;
19495;SDS011;9888;48.606;9.630;2022-08-16T09:53:04;12.97;;;9.37;;
19495;SDS011;9888;48.606;9.630;2022-08-16T09:56:25;16.30;;;9.27;;
19495;SDS011;9888;48.606;9.630;2022-08-16T09:58:55;11.83;;;9.03;;
19495;SDS011;9888;48.606;9.630;2022-08-16T10:01:24;11.70;;;8.80;;
19495;SDS011;9888;48.606;9.630;2022-08-16T10:03:54;11.73;;;9.17;;
19495;SDS011;9888;48.606;9.630;2022-08-16T10:09:49;11.60;;;8.90;;
19495;SDS011;9888;48.606;9.630;2022-08-16T10:12:20;14.20;;;9.20;;
19495;SDS011;9888;48.606;9.630;2022-08-16T10:15:06;14.20;;;8.57;;
19495;SDS011;9888;48.606;9.630;2022-08-16T10:17:34;11.90;;;8.43;;
19495;SDS011;9888;48.606;9.630;2022-08-16T10:20:10;14.80;;;8.20;;
19495;SDS011;9888;48.606;9.630;2022-08-16T10:26:01;16.30;;;9.30;;
19495;SDS011;9888;48.606;9.630;2022-08-16T10:28:29;13.53;;;8.90;;
19495;SDS011;9888;48.606;9.630;2022-08-16T10:31:01;11.27;;;8.90;;
19495;SDS011;9888;48.606;9.630;2022-08-16T10:33:31;11.07;;;8.43;;
19495;SDS011;9888;48.606;9.630;2022-08-16T10:36:06;12.30;;;9.23;;
19495;SDS011;9888;48.606;9.630;2022-08-16T10:38:37;12.00;;;8.37;;
19495;SDS011;9888;48.606;9.630;2022-08-16T10:41:12;12.17;;;8.60;;
19495;SDS011;9888;48.606;9.630;2022-08-16T10:43:49;11.83;;;8.23;;
19495;SDS011;9888;48.606;9.630;2022-08-16T10:49:38;12.23;;;8.50;;
19495;SDS011;9888;48.606;9.630;2022-08-16T10:58:51;11.03;;;8.10;;
19495;SDS011;9888;48.606;9.630;2022-08-16T11:01:23;9.80;;;8.60;;
19495;SDS011;9888;48.606;9.630;2022-08-16T11:07:15;10.30;;;8.60;;
19495;SDS011;9888;48.606;9.630;2022-08-16T11:13:04;11.63;;;9.07;;
19495;SDS011;9888;48.606;9.630;2022-08-16T11:18:44;16.83;;;8.90;;
19495;SDS011;9888;48.606;9.630;2022-08-16T11:21:14;9.63;;;7.80;;
19495;SDS011;9888;48.606;9.630;2022-08-16T11:23:56;10.80;;;8.70;;
19495;SDS011;9888;48.606;9.630;2022-08-16T11:26:24;10.37;;;8.17;;
19495;SDS011;9888;48.606;9.630;2022-08-16T11:28:54;12.60;;;8.87;;
19495;SDS011;9888;48.606;9.630;2022-08-16T11:31:23;10.40;;;8.10;;
19495;SDS011;9888;48.606;9.630;2022-08-16T11:33:51;10.40;;;8.00;;
19495;SDS011;9888;48.606;9.630;2022-08-16T11:37:16;11.90;;;8.17;;
19495;SDS011;9888;48.606;9.630;2022-08-16T11:43:24;9.67;;;7.40;;
19495;SDS011;9888;48.606;9.630;2022-08-16T11:45:57;10.17;;;7.40;;
19495;SDS011;9888;48.606;9.630;2022-08-16T11:48:28;9.30;;;8.00;;
19495;SDS011;9888;48.606;9.630;2022-08-16T11:50:58;9.17;;;7.50;;
19495;SDS011;9888;48.606;9.630;2022-08-16T11:53:27;12.10;;;7.77;;
19495;SDS011;9888;48.606;9.630;2022-08-16T11:55:55;10.03;;;8.10;;
19495;SDS011;9888;48.606;9.630;2022-08-16T11:58:23;9.40;;;7.60;;
19495;SDS011;9888;48.606;9.630;2022-08-16T12:00:54;11.40;;;7.63;;
19495;SDS011;9888;48.606;9.630;2022-08-16T12:03:39;9.13;;;8.00;;
19495;SDS011;9888;48.606;9.630;2022-08-16T12:06:16;10.07;;;7.70;;
19495;SDS011;9888;48.606;9.630;2022-08-16T12:08:47;10.83;;;8.37;;
19495;SDS011;9888;48.606;9.630;2022-08-16T12:11:23;9.10;;;7.70;;
19495;SDS011;9888;48.606;9.630;2022-08-16T12:13:51;10.90;;;7.93;;
19495;SDS011;9888;48.606;9.630;2022-08-16T12:16:23;11.07;;;7.50;;
19495;SDS011;9888;48.606;9.630;2022-08-16T12:18:55;10.23;;;7.47;;
19495;SDS011;9888;48.606;9.630;2022-08-16T12:21:22;8.40;;;7.47;;
19495;SDS011;9888;48.606;9.630;2022-08-16T12:23:50;9.40;;;7.33;;
19495;SDS011;9888;48.606;9.630;2022-08-16T12:26:19;9.50;;;7.23;;
19495;SDS011;9888;48.606;9.630;2022-08-16T12:29:02;10.47;;;6.80;;
19495;SDS011;9888;48.606;9.630;2022-08-16T12:31:33;9.80;;;7.43;;
19495;SDS011;9888;48.606;9.630;2022-08-16T12:34:56;14.63;;;7.70;;
19495;SDS011;9888;48.606;9.630;2022-08-16T12:40:47;9.10;;;7.50;;
19495;SDS011;9888;48.606;9.630;2022-08-16T12:43:17;9.50;;;7.77;;
19495;SDS011;9888;48.606;9.630;2022-08-16T12:45:50;8.97;;;7.50;;
19495;SDS011;9888;48.606;9.630;2022-08-16T12:51:29;25.87;;;9.00;;
19495;SDS011;9888;48.606;9.630;2022-08-16T12:54:06;15.37;;;7.70;;
19495;SDS011;9888;48.606;9.630;2022-08-16T12:56:51;9.80;;;7.47;;
19495;SDS011;9888;48.606;9.630;2022-08-16T12:59:20;8.03;;;7.00;;
19495;SDS011;9888;48.606;9.630;2022-08-16T13:01:48;9.40;;;8.03;;
19495;SDS011;9888;48.606;9.630;2022-08-16T13:04:23;8.20;;;7.37;;
19495;SDS011;9888;48.606;9.630;2022-08-16T13:06:53;11.73;;;7.63;;
19495;SDS011;9888;48.606;9.630;2022-08-16T13:09:24;8.80;;;7.30;;
19495;SDS011;9888;48.606;9.630;2022-08-16T13:12:16;9.40;;;7.87;;
19495;SDS011;9888;48.606;9.630;2022-08-16T13:14:48;7.70;;;6.90;;
19495;SDS011;9888;48.606;9.630;2022-08-16T13:17:24;9.07;;;7.53;;
19495;SDS011;9888;48.606;9.630;2022-08-16T13:19:57;8.87;;;7.73;;
19495;SDS011;9888;48.606;9.630;2022-08-16T13:22:27;8.50;;;7.60;;
19495;SDS011;9888;48.606;9.630;2022-08-16T13:25:11;9.67;;;7.83;;
19495;SDS011;9888;48.606;9.630;2022-08-16T13:27:41;8.60;;;7.50;;
19495;SDS011;9888;48.606;9.630;2022-08-16T13:33:01;16.80;;;11.23;;
19495;SDS011;9888;48.606;9.630;2022-08-16T13:35:29;19.60;;;8.30;;
19495;SDS011;9888;48.606;9.630;2022-08-16T13:38:11;13.77;;;8.37;;
19495;SDS011;9888;48.606;9.630;2022-08-16T13:40:45;8.87;;;7.10;;
19495;SDS011;9888;48.606;9.630;2022-08-16T13:43:13;11.43;;;7.93;;
19495;SDS011;9888;48.606;9.630;2022-08-16T13:45:41;9.50;;;7.33;;
19495;SDS011;9888;48.606;9.630;2022-08-16T13:48:17;10.10;;;7.80;;
19495;SDS011;9888;48.606;9.630;2022-08-16T13:50:44;8.43;;;7.57;;
19495;SDS011;9888;48.606;9.630;2022-08-16T13:53:15;12.60;;;7.63;;
19495;SDS011;9888;48.606;9.630;2022-08-16T13:59:12;9.53;;;7.80;;
19495;SDS011;9888;48.606;9.630;2022-08-16T14:01:46;8.80;;;7.03;;
19495;SDS011;9888;48.606;9.630;2022-08-16T14:07:57;8.07;;;6.85;;
19495;SDS011;9888;48.606;9.630;2022-08-16T14:10:28;7.95;;;7.15;;
19495;SDS011;9888;48.606;9.630;2022-08-16T14:13:02;7.90;;;7.10;;
19495;SDS011;9888;48.606;9.630;2022-08-16T14:18:53;8.40;;;6.88;;
19495;SDS011;9888;48.606;9.630;2022-08-16T14:21:22;8.13;;;7.28;;
19495;SDS011;9888;48.606;9.630;2022-08-16T14:23:49;8.80;;;7.40;;
19495;SDS011;9888;48.606;9.630;2022-08-16T14:26:19;11.80;;;7.80;;
19495;SDS011;9888;48.606;9.630;2022-08-16T14:28:49;9.13;;;7.70;;
19495;SDS011;9888;48.606;9.630;2022-08-16T14:31:17;10.13;;;7.50;;
19495;SDS011;9888;48.606;9.630;2022-08-16T14:33:44;9.80;;;7.20;;
19495;SDS011;9888;48.606;9.630;2022-08-16T14:36:12;8.60;;;7.67;;
19495;SDS011;9888;48.606;9.630;2022-08-16T14:38:40;8.23;;;7.37;;
19495;SDS011;9888;48.606;9.630;2022-08-16T14:41:09;9.43;;;7.67;;
19495;SDS011;9888;48.606;9.630;2022-08-16T14:43:36;8.80;;;7.60;;
19495;SDS011;9888;48.606;9.630;2022-08-16T14:46:03;9.10;;;6.70;;
19495;SDS011;9888;48.606;9.630;2022-08-16T14:48:38;11.48;;;7.45;;
19495;SDS011;9888;48.606;9.630;2022-08-16T14:51:08;9.80;;;7.47;;
19495;SDS011;9888;48.606;9.630;2022-08-16T14:53:39;9.00;;;6.90;;
19495;SDS011;9888;48.606;9.630;2022-08-16T14:56:18;16.75;;;8.07;;
19495;SDS011;9888;48.606;9.630;2022-08-16T15:01:44;9.23;;;6.83;;
19495;SDS011;9888;48.606;9.630;2022-08-16T15:04:16;43.23;;;8.43;;
19495;SDS011;9888;48.606;9.630;2022-08-16T15:06:46;19.17;;;7.67;;
19495;SDS011;9888;48.606;9.630;2022-08-16T15:09:33;10.23;;;7.63;;
19495;SDS011;9888;48.606;9.630;2022-08-16T15:12:07;17.85;;;9.52;;
19495;SDS011;9888;48.606;9.630;2022-08-16T15:14:38;11.02;;;7.20;;
19495;SDS011;9888;48.606;9.630;2022-08-16T15:17:17;10.18;;;7.53;;
19495;SDS011;9888;48.606;9.630;2022-08-16T15:23:08;7.63;;;6.83;;
19495;SDS011;9888;48.606;9.630;2022-08-16T15:25:39;8.10;;;7.30;;
19495;SDS011;9888;48.606;9.630;2022-08-16T15:28:12;8.93;;;7.63;;
19495;SDS011;9888;48.606;9.630;2022-08-16T15:30:40;8.63;;;6.67;;
19495;SDS011;9888;48.606;9.630;2022-08-16T15:33:08;9.17;;;7.40;;
19495;SDS011;9888;48.606;9.630;2022-08-16T15:35:39;8.43;;;7.53;;
19495;SDS011;9888;48.606;9.630;2022-08-16T15:38:08;12.40;;;7.60;;
19495;SDS011;9888;48.606;9.630;2022-08-16T15:40:36;11.83;;;7.80;;
19495;SDS011;9888;48.606;9.630;2022-08-16T15:43:05;27.53;;;9.00;;
19495;SDS011;9888;48.606;9.630;2022-08-16T15:45:36;13.30;;;8.10;;
19495;SDS011;9888;48.606;9.630;2022-08-16T15:48:25;22.53;;;7.60;;
19495;SDS011;9888;48.606;9.630;2022-08-16T15:57:32;10.50;;;7.47;;
19495;SDS011;9888;48.606;9.630;2022-08-16T16:00:22;9.13;;;7.50;;
19495;SDS011;9888;48.606;9.630;2022-08-16T16:03:12;10.70;;;7.73;;
19495;SDS011;9888;48.606;9.630;2022-08-16T16:09:23;14.00;;;7.80;;
19495;SDS011;9888;48.606;9.630;2022-08-16T16:15:10;9.07;;;7.20;;
19495;SDS011;9888;48.606;9.630;2022-08-16T16:17:45;12.10;;;7.37;;
19495;SDS011;9888;48.606;9.630;2022-08-16T16:20:14;10.30;;;7.50;;
19495;SDS011;9888;48.606;9.630;2022-08-16T16:26:13;10.93;;;7.20;;
19495;SDS011;9888;48.606;9.630;2022-08-16T16:28:51;12.20;;;7.77;;
19495;SDS011;9888;48.606;9.630;2022-08-16T16:31:22;13.07;;;7.87;;
19495;SDS011;9888;48.606;9.630;2022-08-16T16:33:51;11.90;;;7.97;;
19495;SDS011;9888;48.606;9.630;2022-08-16T16:36:29;8.27;;;7.20;;
19495;SDS011;9888;48.606;9.630;2022-08-16T16:39:09;8.30;;;7.50;;
19495;SDS011;9888;48.606;9.630;2022-08-16T16:42:26;8.68;;;7.70;;
19495;SDS011;9888;48.606;9.630;2022-08-16T16:45:28;8.32;;;7.03;;